首页
METAR-TAF:

METAR-TAF

机场 :

Driggs, 爱达荷州, 美国

纬度: 43-44-33N, 经度: 111-05-51W, 海拔: 1899米

当前天气观测

该预报发布于39分钟前的23:56 UTC
风速9节,风向西南,有时为17节阵风
温度 21°C
湿度 33%
气压 1016 hPa
能見度: 16.1公里
天空无云

METAR: KDIJ 252356Z AUTO 23009G17KT 10SM CLR 21/04 A2999 RMK AO2 SLP108 60000 T02110039 10228 20167 52004 $

时间: 18:35 (00:35 UTC)

预报

该预报发布于1小时和10分钟前的23:25 UTC
预报有效从26日的 00点(UTC)到 26日的 24点(UTC)
风速15节,风向西转西南,有时为25节阵风
能見度: 10公里
散云层高于8000英尺, 积雨云.
附近有雷暴
从 26日的 0300点(UTC)
风速9节,风向南转南东
能見度: 10公里
少量云层高于8000英尺
少量云层高于25000英尺
从 26日的 1700点(UTC)
风速10节,风向西南,有时为20节阵风
能見度: 10公里
多云层高于7000英尺
多云层高于10000英尺
从 26日的 2300点(UTC)
风速15节,风向西转西南,有时为25节阵风
能見度: 10公里
多云层高于7000英尺, 积雨云.
多云层高于10000英尺
附近有雷暴

TAF: KDIJ 252325Z 2600/2624 25015G25KT P6SM VCTS SCT080CB FM260300 16009KT P6SM FEW080 FEW250 FM261700 23010G20KT P6SM BKN070 BKN100 FM262300 24015G25KT P6SM VCTS BKN070CB BKN100 AMD LTD TO CLD VIS AND WIND

超过4000个机场的气象观测和天气预报(METAR&TAF报告)。

可查询的气象台以黄色和红色小点在地图上表示。

将鼠标移到小点上方,可查看气象台名称。

然后点击查看天气观测和预报。

如需切换地图:点击带黑十字的绿色按钮放大地图;点击带横线的绿色按钮缩小地图;或者点击绿色箭头查看邻近地区的地图。


METAR-TAF: